sim
Sign-in with your pilot id or email,
or register
Callsign
Passwort

Schedule Details

Flight Number: RYR2314 (1)
Departure: London Stansted Airport (EGSS) at 07:15
Arrival: Bratislava M. R. Stefanik Airport (LZIB) at 09:25
Route: Ryanair Passenger Schedule. Enter filed route here before submitting Pirep.

Weather Information
Getting current METAR information for EGSS 280350Z AUTO 06007KT 9000 BKN003 09/08 Q1036
Getting current METAR information for LZIB 280330Z 27005KT CAVOK 12/06 Q1025

Schedule Frequency

Route Map